createdAt,value
2018-08-09T00:01:27.542Z,69.33
2018-08-09T00:03:56.147Z,69.47
2018-08-09T00:06:24.766Z,69.23
2018-08-09T00:08:53.407Z,69.09
2018-08-09T00:11:22.070Z,69.70
2018-08-09T00:13:50.747Z,70.17
2018-08-09T00:16:19.407Z,70.30
2018-08-09T00:18:48.122Z,71.21
2018-08-09T00:21:16.836Z,70.27
2018-08-09T00:23:45.487Z,71.35
2018-08-09T00:26:14.172Z,70.73
2018-08-09T00:28:42.856Z,71.42
2018-08-09T00:31:11.520Z,72.23
2018-08-09T00:33:40.207Z,72.43
2018-08-09T00:36:09.042Z,71.82
2018-08-09T00:38:37.734Z,72.20
2018-08-09T00:41:06.779Z,72.59
2018-08-09T00:43:35.484Z,72.69
2018-08-09T00:46:04.184Z,73.14
2018-08-09T00:48:32.960Z,73.21
2018-08-09T00:51:01.596Z,73.20
2018-08-09T00:53:30.274Z,73.38
2018-08-09T00:55:58.911Z,73.59
2018-08-09T00:58:27.563Z,73.27
2018-08-09T01:00:56.522Z,72.73
2018-08-09T01:03:25.158Z,73.56
2018-08-09T01:05:53.839Z,73.32
2018-08-09T01:08:22.544Z,73.50
2018-08-09T01:10:51.966Z,73.68
2018-08-09T01:13:20.644Z,73.85
2018-08-09T01:15:49.319Z,73.51
2018-08-09T01:18:17.977Z,73.39
2018-08-09T01:20:46.672Z,73.57
2018-08-09T01:23:15.400Z,73.77
2018-08-09T01:25:44.132Z,74.81
2018-08-09T01:28:12.828Z,74.41
2018-08-09T01:30:41.519Z,74.37
2018-08-09T01:33:10.200Z,73.78
2018-08-09T01:35:39.018Z,73.40
2018-08-09T01:38:07.704Z,74.01
2018-08-09T01:40:36.340Z,74.46
2018-08-09T01:43:16.569Z,74.97
2018-08-09T01:45:45.286Z,74.73
2018-08-09T01:48:13.950Z,74.92
2018-08-09T01:50:42.603Z,74.06
2018-08-09T01:53:11.281Z,74.09
2018-08-09T01:55:39.898Z,73.92
2018-08-09T01:58:08.573Z,74.05
2018-08-09T02:00:37.241Z,74.04
2018-08-09T02:03:06.176Z,73.99
2018-08-09T02:05:34.820Z,74.53
2018-08-09T02:08:03.496Z,74.30
2018-08-09T02:10:32.143Z,74.17
2018-08-09T02:13:00.775Z,74.14
2018-08-09T02:15:29.446Z,73.91
2018-08-09T02:17:58.215Z,73.36
2018-08-09T02:20:26.846Z,73.61
2018-08-09T02:22:55.492Z,74.01
2018-08-09T02:25:24.116Z,74.00
2018-08-09T02:27:52.771Z,74.41
2018-08-09T02:30:21.425Z,74.49
2018-08-09T02:32:50.108Z,74.60
2018-08-09T02:35:18.737Z,74.39
2018-08-09T02:37:47.414Z,74.02
2018-08-09T02:40:16.088Z,73.75
2018-08-09T02:42:44.705Z,74.55
2018-08-09T02:45:14.000Z,74.87
2018-08-09T02:47:42.641Z,74.91
2018-08-09T02:50:11.455Z,74.98
2018-08-09T02:52:40.209Z,75.39
2018-08-09T02:55:08.918Z,75.54
2018-08-09T02:57:37.563Z,75.27
2018-08-09T03:00:06.782Z,75.12
2018-08-09T03:02:35.701Z,75.41
2018-08-09T03:05:04.680Z,76.04
2018-08-09T03:07:33.371Z,76.27
2018-08-09T03:10:02.041Z,75.91
2018-08-09T03:12:30.741Z,75.50
2018-08-09T03:14:59.373Z,75.06
2018-08-09T03:17:28.057Z,74.62
2018-08-09T03:19:56.708Z,74.49
2018-08-09T03:22:25.342Z,75.14
2018-08-09T03:24:53.975Z,75.30
2018-08-09T03:27:22.623Z,74.68
2018-08-09T03:29:51.257Z,74.97
2018-08-09T03:32:19.900Z,74.46
2018-08-09T03:34:48.539Z,74.62
2018-08-09T03:37:17.220Z,74.88
2018-08-09T03:39:45.878Z,74.92
2018-08-09T03:42:14.561Z,74.06
2018-08-09T03:44:43.305Z,74.32
2018-08-09T03:47:12.004Z,73.90
2018-08-09T03:49:41.368Z,74.51
2018-08-09T03:52:10.764Z,73.82
2018-08-09T03:54:39.577Z,74.03
2018-08-09T03:57:08.297Z,74.43
2018-08-09T03:59:37.061Z,75.14
2018-08-09T04:02:05.857Z,74.77
2018-08-09T04:04:34.544Z,75.17
2018-08-09T04:07:03.274Z,74.69
2018-08-09T04:09:31.920Z,75.09
2018-08-09T04:12:00.661Z,74.58
2018-08-09T04:14:29.251Z,74.68
2018-08-09T04:16:57.919Z,74.56
2018-08-09T04:19:26.591Z,74.27
2018-08-09T04:21:55.316Z,74.46
2018-08-09T04:24:24.088Z,74.65
2018-08-09T04:26:52.797Z,74.01
2018-08-09T04:29:21.520Z,73.40
2018-08-09T04:31:50.715Z,73.86
2018-08-09T04:34:20.175Z,73.65
2018-08-09T04:36:51.422Z,73.06
2018-08-09T04:39:20.270Z,72.71
2018-08-09T04:41:48.905Z,72.88
2018-08-09T04:44:17.613Z,72.81
2018-08-09T04:46:46.303Z,72.47
2018-08-09T04:49:15.028Z,72.31
2018-08-09T04:51:43.615Z,72.21
2018-08-09T04:54:12.256Z,72.34
2018-08-09T04:56:40.928Z,72.62
2018-08-09T04:59:09.678Z,71.90
2018-08-09T05:01:38.384Z,71.63
2018-08-09T05:04:07.256Z,71.48
2018-08-09T05:06:35.920Z,71.60
2018-08-09T05:09:07.096Z,71.28
2018-08-09T05:11:35.805Z,71.48
2018-08-09T05:14:04.448Z,70.97
2018-08-09T05:16:33.147Z,70.76
2018-08-09T05:19:01.965Z,70.73
2018-08-09T05:21:30.595Z,70.79
2018-08-09T05:23:59.399Z,70.98
2018-08-09T05:26:28.110Z,71.34
2018-08-09T05:28:56.750Z,70.18
2018-08-09T05:31:25.447Z,70.24
2018-08-09T05:33:54.166Z,69.89
2018-08-09T05:36:22.835Z,69.94
2018-08-09T05:38:51.557Z,70.49
2018-08-09T05:41:20.316Z,70.57
2018-08-09T05:43:49.021Z,70.33
2018-08-09T05:46:17.740Z,70.75
2018-08-09T05:48:46.392Z,70.95
2018-08-09T05:51:15.730Z,70.40
2018-08-09T05:53:44.973Z,70.27
2018-08-09T05:56:13.756Z,69.81
2018-08-09T05:58:43.166Z,69.71
2018-08-09T06:01:11.913Z,69.77
2018-08-09T06:03:40.582Z,69.67
2018-08-09T06:06:09.315Z,69.54
2018-08-09T06:08:38.806Z,68.70
2018-08-09T06:11:07.551Z,68.53
2018-08-09T06:13:36.269Z,68.66
2018-08-09T06:16:05.142Z,68.44
2018-08-09T06:18:33.877Z,68.32
2018-08-09T06:21:02.700Z,67.81
2018-08-09T06:23:31.400Z,68.12
2018-08-09T06:26:00.064Z,68.16
2018-08-09T06:28:28.736Z,66.46
2018-08-09T06:30:57.381Z,66.72
2018-08-09T06:33:26.317Z,67.02
2018-08-09T06:35:54.918Z,66.99
2018-08-09T06:38:23.618Z,66.48
2018-08-09T06:40:52.376Z,65.88
2018-08-09T06:43:21.033Z,64.52
2018-08-09T06:45:49.737Z,63.77
2018-08-09T06:48:18.773Z,63.26
2018-08-09T06:50:47.715Z,63.00
2018-08-09T06:53:16.415Z,62.58
2018-08-09T06:55:45.138Z,62.67
2018-08-09T06:58:13.876Z,63.74
2018-08-09T07:00:43.012Z,63.35
2018-08-09T07:03:12.200Z,63.68
2018-08-09T07:05:40.897Z,62.34
2018-08-09T07:08:09.629Z,61.68
2018-08-09T07:10:38.324Z,60.99
2018-08-09T07:13:07.057Z,60.37
2018-08-09T07:15:35.728Z,58.79
2018-08-09T07:18:04.940Z,58.03
2018-08-09T07:20:33.739Z,57.11
2018-08-09T07:23:02.448Z,56.22
2018-08-09T07:25:31.214Z,57.61
2018-08-09T07:27:59.945Z,56.82
2018-08-09T07:30:28.611Z,54.86
2018-08-09T07:32:57.335Z,54.31
2018-08-09T07:35:26.658Z,53.50
2018-08-09T07:37:55.344Z,52.41
2018-08-09T07:40:24.065Z,51.65
2018-08-09T07:42:52.781Z,50.63
2018-08-09T07:45:21.437Z,49.77
2018-08-09T07:47:50.125Z,49.74
2018-08-09T07:50:18.820Z,50.48
2018-08-09T07:52:47.460Z,51.12
2018-08-09T07:55:16.140Z,49.97
2018-08-09T07:57:44.864Z,49.76
2018-08-09T08:00:13.592Z,49.18
2018-08-09T08:02:42.513Z,48.70
2018-08-09T08:05:11.236Z,47.04
2018-08-09T08:07:39.920Z,45.27
2018-08-09T08:10:09.878Z,44.85
2018-08-09T08:12:38.587Z,44.68
2018-08-09T08:15:08.164Z,45.76
2018-08-09T08:17:37.190Z,46.69
2018-08-09T08:20:06.038Z,46.71
2018-08-09T08:22:34.924Z,46.57
2018-08-09T08:25:03.730Z,47.13
2018-08-09T08:27:32.568Z,45.03
2018-08-09T08:30:02.013Z,45.00
2018-08-09T08:32:30.717Z,44.33
2018-08-09T08:34:59.462Z,44.00
2018-08-09T08:37:28.248Z,43.38
2018-08-09T08:39:56.953Z,41.99
2018-08-09T08:42:25.604Z,42.56
2018-08-09T08:44:54.399Z,42.34
2018-08-09T08:47:23.511Z,41.90
2018-08-09T08:49:52.209Z,40.82
2018-08-09T08:52:20.932Z,41.09
2018-08-09T08:54:49.996Z,41.15
2018-08-09T08:57:18.645Z,41.76
2018-08-09T08:59:47.369Z,42.41
2018-08-09T09:02:16.038Z,42.30
2018-08-09T09:04:44.700Z,42.20
2018-08-09T09:07:13.382Z,41.76
2018-08-09T09:09:41.980Z,42.22
2018-08-09T09:12:10.677Z,42.89
2018-08-09T09:14:39.302Z,42.35
2018-08-09T09:17:07.956Z,41.99
2018-08-09T09:19:36.653Z,41.31
2018-08-09T09:22:05.344Z,40.21
2018-08-09T09:24:34.104Z,40.96
2018-08-09T09:27:03.156Z,41.21
2018-08-09T09:29:31.788Z,40.76
2018-08-09T09:32:00.460Z,41.99
2018-08-09T09:34:29.132Z,42.96
2018-08-09T09:36:57.818Z,42.30
2018-08-09T09:39:26.523Z,41.43
2018-08-09T09:41:55.187Z,40.79
2018-08-09T09:44:23.852Z,41.19
2018-08-09T09:46:52.492Z,39.37
2018-08-09T09:49:21.149Z,37.51
2018-08-09T09:51:49.780Z,36.39
2018-08-09T09:54:18.447Z,36.84
2018-08-09T09:56:47.158Z,35.37
2018-08-09T09:59:15.819Z,37.19
2018-08-09T10:01:44.715Z,37.89
2018-08-09T10:04:13.392Z,37.70
2018-08-09T10:06:42.601Z,38.08
2018-08-09T10:09:12.487Z,36.07
2018-08-09T10:11:41.593Z,39.89
2018-08-09T10:14:10.313Z,41.92
2018-08-09T10:16:38.965Z,38.28
2018-08-09T10:19:07.620Z,35.94
2018-08-09T10:21:36.369Z,35.57
2018-08-09T10:24:05.223Z,33.92
2018-08-09T10:26:33.919Z,34.79
2018-08-09T10:29:02.604Z,35.91
2018-08-09T10:31:31.263Z,34.93
2018-08-09T10:34:00.080Z,36.03
2018-08-09T10:36:28.815Z,36.54
2018-08-09T10:38:57.478Z,35.36
2018-08-09T10:41:26.220Z,34.12
2018-08-09T10:43:54.966Z,33.94
2018-08-09T10:46:23.688Z,33.66
2018-08-09T10:48:52.370Z,34.60
2018-08-09T10:51:21.207Z,34.96
2018-08-09T10:53:49.919Z,34.17
2018-08-09T10:56:18.868Z,32.84
2018-08-09T10:58:47.556Z,32.95
2018-08-09T11:01:16.226Z,32.88
2018-08-09T11:03:44.880Z,31.34
2018-08-09T11:06:13.547Z,31.33
2018-08-09T11:08:42.392Z,31.64
2018-08-09T11:11:12.620Z,32.25
2018-08-09T11:13:43.379Z,31.89
2018-08-09T11:16:13.075Z,32.24
2018-08-09T11:18:42.338Z,31.87
2018-08-09T11:21:11.048Z,30.39
2018-08-09T11:23:39.821Z,30.82
2018-08-09T11:26:08.493Z,30.47
2018-08-09T11:28:37.264Z,30.73
2018-08-09T11:31:05.929Z,31.67
2018-08-09T11:33:34.603Z,32.01
2018-08-09T11:36:03.390Z,32.48
2018-08-09T11:38:32.112Z,32.57
2018-08-09T11:41:00.850Z,31.39
2018-08-09T11:43:29.634Z,31.35
2018-08-09T11:45:58.318Z,32.05
2018-08-09T11:48:27.017Z,31.08
2018-08-09T11:50:55.691Z,30.72
2018-08-09T11:53:24.308Z,30.11
2018-08-09T11:55:52.998Z,30.72
2018-08-09T11:58:21.713Z,31.85
2018-08-09T12:00:50.488Z,31.24
2018-08-09T12:03:19.364Z,30.60
2018-08-09T12:05:48.029Z,30.86
2018-08-09T12:08:16.701Z,30.30
2018-08-09T12:10:45.359Z,30.43
2018-08-09T12:13:14.190Z,30.69
2018-08-09T12:15:43.023Z,31.11
2018-08-09T12:18:11.713Z,31.90
2018-08-09T12:20:40.436Z,32.25
2018-08-09T12:23:09.079Z,32.15
2018-08-09T12:25:37.767Z,32.74
2018-08-09T12:28:06.420Z,33.54
2018-08-09T12:30:35.112Z,33.80
2018-08-09T12:33:03.794Z,33.90
2018-08-09T12:35:32.470Z,33.57
2018-08-09T12:38:01.172Z,32.96
2018-08-09T12:40:29.824Z,33.39
2018-08-09T12:42:58.809Z,33.44
2018-08-09T12:45:27.563Z,33.01
2018-08-09T12:47:56.190Z,32.15
2018-08-09T12:50:25.068Z,34.45
2018-08-09T12:52:53.789Z,34.83
2018-08-09T12:55:23.226Z,36.29
2018-08-09T12:57:51.930Z,37.03
2018-08-09T13:00:20.607Z,36.74
2018-08-09T13:02:49.302Z,36.65
2018-08-09T13:05:17.956Z,36.77
2018-08-09T13:07:46.655Z,37.09
2018-08-09T13:10:15.518Z,36.57
2018-08-09T13:12:44.178Z,36.57
2018-08-09T13:15:13.670Z,36.28
2018-08-09T13:17:43.311Z,35.45
2018-08-09T13:20:14.239Z,35.29
2018-08-09T13:22:43.164Z,35.30
2018-08-09T13:25:11.793Z,34.53
2018-08-09T13:27:40.600Z,33.92
2018-08-09T13:30:12.084Z,33.72
2018-08-09T13:32:41.253Z,33.98
2018-08-09T13:35:10.265Z,34.54
2018-08-09T13:37:39.165Z,35.34
2018-08-09T13:40:08.931Z,35.61
2018-08-09T13:42:37.955Z,35.13
2018-08-09T13:45:09.071Z,34.90
2018-08-09T13:47:37.823Z,33.49
2018-08-09T13:50:07.197Z,33.66
2018-08-09T13:52:35.876Z,34.22
2018-08-09T13:55:05.527Z,34.39
2018-08-09T13:57:34.479Z,34.69
2018-08-09T14:00:03.200Z,33.83
2018-08-09T14:02:31.956Z,34.00
2018-08-09T14:05:00.624Z,34.39
2018-08-09T14:07:29.337Z,35.19
2018-08-09T14:09:58.719Z,34.97
2018-08-09T14:12:27.671Z,34.22
2018-08-09T14:14:56.403Z,34.38
2018-08-09T14:17:25.531Z,34.87
2018-08-09T14:19:54.242Z,35.07
2018-08-09T14:22:22.933Z,35.81
2018-08-09T14:24:51.799Z,36.87
2018-08-09T14:27:20.465Z,37.30
2018-08-09T14:29:49.654Z,36.77
2018-08-09T14:32:18.384Z,36.74
2018-08-09T14:34:47.192Z,36.83
2018-08-09T14:37:16.084Z,36.96
2018-08-09T14:39:45.438Z,37.83
2018-08-09T14:42:14.181Z,38.47
2018-08-09T14:44:42.812Z,38.52
2018-08-09T14:47:11.539Z,38.54
2018-08-09T14:49:40.225Z,38.54
2018-08-09T14:52:09.106Z,39.36
2018-08-09T14:54:37.790Z,40.25
2018-08-09T14:57:06.469Z,39.28
2018-08-09T14:59:35.133Z,39.84
2018-08-09T15:02:03.864Z,39.91
2018-08-09T15:04:32.532Z,39.86
2018-08-09T15:07:01.192Z,39.59
2018-08-09T15:09:29.853Z,39.80
2018-08-09T15:12:00.013Z,40.43
2018-08-09T15:14:28.764Z,39.96
2018-08-09T15:16:57.461Z,40.05
2018-08-09T15:19:26.123Z,40.26
2018-08-09T15:21:54.793Z,40.65
2018-08-09T15:24:23.804Z,40.76
2018-08-09T15:26:52.533Z,40.56
2018-08-09T15:29:21.254Z,41.19
2018-08-09T15:31:49.911Z,42.18
2018-08-09T15:34:18.768Z,42.12
2018-08-09T15:36:47.460Z,42.31
2018-08-09T15:39:16.167Z,42.92
2018-08-09T15:41:45.035Z,43.02
2018-08-09T15:44:14.233Z,43.13
2018-08-09T15:46:42.912Z,43.13
2018-08-09T15:49:11.605Z,43.64
2018-08-09T15:51:40.492Z,43.90
2018-08-09T15:54:09.186Z,44.08
2018-08-09T15:56:37.916Z,44.66
2018-08-09T15:59:06.584Z,45.03
2018-08-09T16:01:35.248Z,45.42
2018-08-09T16:04:03.897Z,46.01
2018-08-09T16:06:32.580Z,46.20
2018-08-09T16:09:01.272Z,46.25
2018-08-09T16:11:29.941Z,46.06
2018-08-09T16:13:59.125Z,46.54
2018-08-09T16:16:27.809Z,47.22
2018-08-09T16:18:56.443Z,47.17
2018-08-09T16:21:25.068Z,48.23
2018-08-09T16:23:53.804Z,48.44
2018-08-09T16:26:22.444Z,48.22
2018-08-09T16:28:51.143Z,48.29
2018-08-09T16:31:19.884Z,49.15
2018-08-09T16:33:48.538Z,49.24
2018-08-09T16:36:17.212Z,49.36
2018-08-09T16:38:45.892Z,50.03
2018-08-09T16:41:14.560Z,50.35
2018-08-09T16:43:43.213Z,49.84
2018-08-09T16:46:11.907Z,50.37
2018-08-09T16:48:40.572Z,50.97
2018-08-09T16:51:09.260Z,51.64
2018-08-09T16:53:37.964Z,51.70
2018-08-09T16:56:06.784Z,52.53
2018-08-09T16:58:35.463Z,52.54
2018-08-09T17:01:04.233Z,53.02
2018-08-09T17:03:32.876Z,52.93
2018-08-09T17:06:01.523Z,53.14
2018-08-09T17:08:30.241Z,53.09
2018-08-09T17:10:58.922Z,53.39
2018-08-09T17:13:27.613Z,53.49
2018-08-09T17:15:56.322Z,53.92
2018-08-09T17:18:25.053Z,53.72
2018-08-09T17:20:53.780Z,53.70
2018-08-09T17:23:22.478Z,54.25
2018-08-09T17:25:51.168Z,54.27
2018-08-09T17:28:19.836Z,54.35
2018-08-09T17:30:48.542Z,54.80
2018-08-09T17:33:17.218Z,55.14
2018-08-09T17:35:45.893Z,55.90
2018-08-09T17:38:14.544Z,56.76
2018-08-09T17:40:43.265Z,56.69
2018-08-09T17:43:11.893Z,56.43
2018-08-09T17:45:40.607Z,57.24
2018-08-09T17:48:09.252Z,57.27
2018-08-09T17:50:37.931Z,57.94
2018-08-09T17:53:08.000Z,57.88
2018-08-09T17:55:36.727Z,58.46
2018-08-09T17:58:05.496Z,58.40
2018-08-09T18:00:35.148Z,59.71
2018-08-09T18:03:03.892Z,60.28
2018-08-09T18:05:32.528Z,61.07
2018-08-09T18:08:01.566Z,61.20
2018-08-09T18:10:32.224Z,62.29
2018-08-09T18:13:00.996Z,62.77
2018-08-09T18:15:30.348Z,62.65
2018-08-09T18:17:59.760Z,62.79
2018-08-09T18:20:31.133Z,63.10
2018-08-09T18:23:01.294Z,63.06
2018-08-09T18:25:30.327Z,63.74
2018-08-09T18:27:59.074Z,63.85
2018-08-09T18:30:28.445Z,64.65
2018-08-09T18:32:57.175Z,64.87
2018-08-09T18:35:25.841Z,64.86
2018-08-09T18:37:54.543Z,65.02
2018-08-09T18:40:25.025Z,65.15
2018-08-09T18:42:53.779Z,65.83
2018-08-09T18:45:22.675Z,65.83
2018-08-09T18:47:51.617Z,65.86
2018-08-09T18:50:23.389Z,66.19
2018-08-09T18:52:54.732Z,66.04
2018-08-09T18:55:23.799Z,66.24
2018-08-09T18:57:52.648Z,66.15
2018-08-09T19:00:22.621Z,66.50
2018-08-09T19:02:52.574Z,66.70
2018-08-09T19:05:21.801Z,66.45
2018-08-09T19:07:50.518Z,67.19
2018-08-09T19:10:21.035Z,67.29
2018-08-09T19:12:49.720Z,66.82
2018-08-09T19:15:18.791Z,65.99
2018-08-09T19:17:47.457Z,67.05
2018-08-09T19:20:26.892Z,67.25
2018-08-09T19:22:55.765Z,67.82
2018-08-09T19:25:24.439Z,68.28
2018-08-09T19:27:53.128Z,68.29
2018-08-09T19:30:23.475Z,68.32
2018-08-09T19:32:52.299Z,68.58
2018-08-09T19:35:21.669Z,68.59
2018-08-09T19:37:50.471Z,68.90
2018-08-09T19:40:21.327Z,70.09
2018-08-09T19:42:50.023Z,73.69
2018-08-09T19:45:19.313Z,77.94
2018-08-09T19:47:48.056Z,83.43
2018-08-09T19:50:18.768Z,87.88
2018-08-09T19:52:47.560Z,89.46
2018-08-09T19:55:18.752Z,91.11
2018-08-09T19:57:48.526Z,91.34
2018-08-09T20:00:19.513Z,92.42
2018-08-09T20:02:48.941Z,91.62
2018-08-09T20:05:17.633Z,92.45
2018-08-09T20:07:46.574Z,92.47
2018-08-09T20:10:16.080Z,92.32
2018-08-09T20:12:45.691Z,92.04
2018-08-09T20:15:17.668Z,92.06
2018-08-09T20:17:46.812Z,92.33
2018-08-09T20:20:16.988Z,91.68
2018-08-09T20:22:46.227Z,91.39
2018-08-09T20:25:15.377Z,92.00
2018-08-09T20:27:44.603Z,91.96
2018-08-09T20:30:15.677Z,91.78
2018-08-09T20:32:44.858Z,92.58
2018-08-09T20:35:15.180Z,91.84
2018-08-09T20:37:45.008Z,92.32
2018-08-09T20:40:14.573Z,92.30
2018-08-09T20:42:43.983Z,92.19
2018-08-09T20:45:15.153Z,91.64
2018-08-09T20:47:43.876Z,92.19
2018-08-09T20:50:15.118Z,92.36
2018-08-09T20:52:44.828Z,91.58
2018-08-09T20:55:13.803Z,91.60
2018-08-09T20:57:46.309Z,91.39
2018-08-09T21:00:19.347Z,91.81
2018-08-09T21:02:49.232Z,92.14
2018-08-09T21:05:19.299Z,91.99
2018-08-09T21:08:27.022Z,92.06
2018-08-09T21:10:55.688Z,92.80
2018-08-09T21:13:24.364Z,93.44
2018-08-09T21:15:53.038Z,93.90
2018-08-09T21:18:21.808Z,93.54
2018-08-09T21:20:50.452Z,94.12
2018-08-09T21:23:19.181Z,94.65
2018-08-09T21:25:47.812Z,94.77
2018-08-09T21:28:16.476Z,94.30
2018-08-09T21:30:45.167Z,94.12
2018-08-09T21:33:13.879Z,94.24
2018-08-09T21:35:50.811Z,94.43
2018-08-09T21:38:20.983Z,94.16
2018-08-09T21:40:49.680Z,94.34
2018-08-09T21:43:20.410Z,94.18
2018-08-09T21:45:49.795Z,93.64
2018-08-09T21:48:18.620Z,93.83
2018-08-09T21:50:47.428Z,93.59
2018-08-09T21:53:17.677Z,93.33
2018-08-09T21:55:46.928Z,92.71
2018-08-09T21:58:16.107Z,92.00
2018-08-09T22:00:54.242Z,91.16
2018-08-09T22:03:25.251Z,90.84
2018-08-09T22:05:59.322Z,90.56
2018-08-09T22:08:33.316Z,90.00
2018-08-09T22:11:07.584Z,89.58
2018-08-09T22:13:41.544Z,89.46
2018-08-09T22:16:15.501Z,89.13
2018-08-09T22:18:49.564Z,89.14
2018-08-09T22:21:23.608Z,89.12
2018-08-09T22:23:52.308Z,88.47
2018-08-09T22:26:21.162Z,88.72
2018-08-09T22:28:50.507Z,88.36
2018-08-09T22:31:19.340Z,88.43
2018-08-09T22:33:48.483Z,88.30
2018-08-09T22:36:18.180Z,88.16
2018-08-09T22:38:46.893Z,88.63
2018-08-09T22:41:15.568Z,88.26
2018-08-09T22:43:44.344Z,88.70
2018-08-09T22:46:13.101Z,87.76
2018-08-09T22:48:42.523Z,87.20
2018-08-09T22:51:11.273Z,88.28
2018-08-09T22:53:39.980Z,88.59
2018-08-09T22:56:08.692Z,88.32
2018-08-09T22:58:37.400Z,88.16
2018-08-09T23:01:06.081Z,88.55
2018-08-09T23:03:34.791Z,88.44
2018-08-09T23:06:03.499Z,88.77
2018-08-09T23:08:32.179Z,88.62
2018-08-09T23:11:00.873Z,89.41
2018-08-09T23:13:29.520Z,89.10
2018-08-09T23:15:58.225Z,89.76
2018-08-09T23:18:26.935Z,89.55
2018-08-09T23:20:55.598Z,89.49
2018-08-09T23:23:24.415Z,89.92
2018-08-09T23:25:53.078Z,90.11
2018-08-09T23:28:21.779Z,90.19
2018-08-09T23:30:50.433Z,90.18
2018-08-09T23:33:22.065Z,90.19
2018-08-09T23:35:50.737Z,90.52
2018-08-09T23:38:19.388Z,91.16
2018-08-09T23:40:48.127Z,90.74
2018-08-09T23:43:16.796Z,90.84
2018-08-09T23:45:45.487Z,91.18
2018-08-09T23:48:14.145Z,91.08
2018-08-09T23:50:42.823Z,90.93
2018-08-09T23:53:11.524Z,90.36
2018-08-09T23:55:46.496Z,90.11
2018-08-09T23:58:15.559Z,89.34
